Time;durP1;ratioP1;P1;durP2;ratioP2;P2;SDS_P1;SDS_P2;PMS_P1;PMS_P2;Temp;Humidity;BMP_temperature;BMP_pressure;BME280_temperature;BME280_humidity;BME280_pressure;Samples;Min_cycle;Max_cycle;Signal;HPM_P1;HPM_P2
2022/10/20 00:01:21;;;;;;;22.10;17.17;;;;;;;11.46;100.00;95831.00;4817751;29;20655;-83
2022/10/20 00:03:47;;;;;;;20.70;17.90;;;;;;;11.42;100.00;95828.88;4820296;29;20261;-84
2022/10/20 00:06:18;;;;;;;22.27;17.60;;;;;;;11.40;100.00;95842.03;4810737;29;20226;-84
2022/10/20 00:08:44;;;;;;;21.77;18.30;;;;;;;11.35;100.00;95833.81;4817799;29;20240;-85
2022/10/20 00:11:11;;;;;;;25.43;20.27;;;;;;;11.33;100.00;95836.56;4816862;29;20793;-83
2022/10/20 00:13:38;;;;;;;24.33;18.90;;;;;;;11.39;100.00;95839.53;4800483;29;20242;-84
2022/10/20 00:16:04;;;;;;;23.50;18.90;;;;;;;11.35;100.00;95839.03;4818459;29;20732;-84
2022/10/20 00:18:29;;;;;;;23.47;19.63;;;;;;;11.37;100.00;95829.28;4812242;29;20300;-84
2022/10/20 00:20:55;;;;;;;23.30;18.80;;;;;;;11.31;100.00;95828.09;4825984;29;20200;-84
2022/10/20 00:23:20;;;;;;;25.20;19.23;;;;;;;11.28;100.00;95833.56;4813208;29;20327;-84
2022/10/20 00:25:46;;;;;;;24.83;17.87;;;;;;;11.32;100.00;95828.94;4825196;29;20246;-85
2022/10/20 00:28:11;;;;;;;23.80;19.00;;;;;;;11.26;100.00;95825.13;4816331;29;20216;-84
2022/10/20 00:30:37;;;;;;;22.77;17.90;;;;;;;11.25;100.00;95822.66;4815759;29;20218;-84
2022/10/20 00:33:03;;;;;;;22.67;18.17;;;;;;;11.25;100.00;95827.88;4814825;29;20232;-85
2022/10/20 00:35:32;;;;;;;20.60;17.17;;;;;;;11.25;100.00;95826.06;4824230;29;20673;-85
2022/10/20 00:37:58;;;;;;;22.27;17.67;;;;;;;11.20;100.00;95819.66;4809513;29;20208;-83
2022/10/20 00:40:23;;;;;;;24.63;19.40;;;;;;;11.21;100.00;95816.09;4827355;29;20217;-84
2022/10/20 00:42:48;;;;;;;24.03;18.10;;;;;;;11.22;100.00;95817.72;4821386;29;20198;-84
2022/10/20 00:45:19;;;;;;;24.77;18.53;;;;;;;11.09;100.00;95804.28;4836711;29;20280;-83
2022/10/20 00:47:56;;;;;;;25.93;18.73;;;;;;;11.05;100.00;95801.97;4839434;29;20292;-84
2022/10/20 00:50:32;;;;;;;21.73;18.50;;;;;;;11.05;100.00;95796.78;4839656;29;20213;-84
2022/10/20 00:52:58;;;;;;;23.23;18.00;;;;;;;11.07;100.00;95789.66;4841151;29;20252;-84
2022/10/20 00:55:28;;;;;;;24.27;19.37;;;;;;;11.03;100.00;95788.28;4822178;29;20233;-84
2022/10/20 00:57:55;;;;;;;24.23;17.80;;;;;;;11.01;100.00;95784.19;4844297;29;20201;-84
2022/10/20 01:00:20;;;;;;;22.37;18.57;;;;;;;11.06;100.00;95772.41;4830323;29;20217;-83
2022/10/20 01:02:48;;;;;;;24.13;17.87;;;;;;;11.07;100.00;95774.06;4838080;29;20193;-84
2022/10/20 01:05:14;;;;;;;25.10;19.73;;;;;;;11.00;100.00;95785.16;4836662;29;20280;-84
2022/10/20 01:07:39;;;;;;;22.60;17.87;;;;;;;11.03;100.00;95780.47;4841496;29;20639;-83
2022/10/20 01:10:05;;;;;;;24.37;18.90;;;;;;;11.02;100.00;95773.66;4841920;29;20226;-85
2022/10/20 01:12:49;;;;;;;26.07;19.07;;;;;;;11.01;100.00;95774.63;4831136;29;20197;-86
2022/10/20 01:15:34;;;;;;;23.10;17.77;;;;;;;11.01;100.00;95777.22;4829395;29;20228;-85
2022/10/20 01:18:21;;;;;;;28.20;19.30;;;;;;;11.00;100.00;95778.19;4837756;29;20198;-83
2022/10/20 01:21:03;;;;;;;28.27;19.30;;;;;;;10.92;100.00;95778.09;4830660;29;20281;-83
2022/10/20 01:24:03;;;;;;;24.00;18.93;;;;;;;10.97;100.00;95769.88;4837955;29;20204;-84
2022/10/20 01:26:47;;;;;;;26.20;19.63;;;;;;;10.87;100.00;95762.13;4827871;29;20201;-84
2022/10/20 01:29:25;;;;;;;23.90;19.37;;;;;;;10.95;100.00;95764.78;4845324;29;20217;-85
2022/10/20 01:32:19;;;;;;;25.47;20.03;;;;;;;10.96;100.00;95755.25;4845895;29;20219;-83
2022/10/20 01:35:09;;;;;;;25.43;20.13;;;;;;;10.97;100.00;95756.88;4822896;29;20209;-83
2022/10/20 01:37:50;;;;;;;28.03;21.30;;;;;;;10.95;100.00;95746.59;4831986;29;20214;-82
2022/10/20 01:40:33;;;;;;;23.70;19.47;;;;;;;10.99;100.00;95750.56;4826510;29;20240;-84
2022/10/20 01:43:03;;;;;;;26.47;20.60;;;;;;;11.00;100.00;95752.19;4836795;29;20201;-84
2022/10/20 01:45:32;;;;;;;25.37;20.47;;;;;;;11.01;100.00;95742.63;4835957;29;20204;-83
2022/10/20 01:47:59;;;;;;;29.60;21.97;;;;;;;10.97;100.00;95729.13;4819724;29;20197;-84
2022/10/20 01:50:24;;;;;;;28.53;21.30;;;;;;;10.96;100.00;95732.69;4817651;29;20269;-84
2022/10/20 01:52:55;;;;;;;26.27;20.63;;;;;;;10.95;100.00;95720.63;4846453;29;20193;-84
2022/10/20 01:55:20;;;;;;;29.93;21.83;;;;;;;10.94;100.00;95720.78;4827040;29;20217;-84
2022/10/20 01:58:11;;;;;;;26.60;21.00;;;;;;;10.97;100.00;95705.72;4828166;29;20253;-85
2022/10/20 02:00:38;;;;;;;29.47;21.07;;;;;;;11.00;100.00;95709.81;4823834;29;20225;-84
2022/10/20 02:03:20;;;;;;;26.73;20.83;;;;;;;11.02;100.00;95707.88;4822506;29;20190;-84
2022/10/20 02:06:08;;;;;;;27.43;20.57;;;;;;;10.94;100.00;95713.78;4841866;29;20196;-83
2022/10/20 02:08:40;;;;;;;26.47;19.83;;;;;;;10.89;100.00;95703.03;4824411;29;20193;-84
2022/10/20 02:11:11;;;;;;;26.50;19.30;;;;;;;10.88;100.00;95690.19;4832646;29;20196;-85
2022/10/20 02:13:37;;;;;;;26.10;19.90;;;;;;;10.88;100.00;95696.22;4827376;29;20219;-83
2022/10/20 02:16:07;;;;;;;24.90;19.10;;;;;;;10.91;100.00;95695.91;4831515;29;20206;-85
2022/10/20 02:18:35;;;;;;;33.57;20.07;;;;;;;10.88;100.00;95701.41;4838857;29;20576;-85
2022/10/20 02:21:02;;;;;;;27.30;19.70;;;;;;;10.90;100.00;95691.69;4836267;29;20201;-84
2022/10/20 02:23:29;;;;;;;26.47;19.30;;;;;;;10.93;100.00;95691.38;4837734;29;20662;-84
2022/10/20 02:25:55;;;;;;;24.30;19.20;;;;;;;10.99;100.00;95687.38;4830909;29;20194;-84
2022/10/20 02:28:21;;;;;;;28.07;19.30;;;;;;;10.91;100.00;95688.13;4819097;29;20630;-85
2022/10/20 02:30:47;;;;;;;25.80;19.00;;;;;;;10.92;100.00;95687.16;4813944;29;20277;-84
2022/10/20 02:33:13;;;;;;;25.87;17.93;;;;;;;10.95;100.00;95684.25;4843795;29;20259;-85
2022/10/20 02:35:41;;;;;;;25.73;18.83;;;;;;;10.98;100.00;95681.38;4824897;29;20214;-83
2022/10/20 02:38:06;;;;;;;25.53;19.20;;;;;;;10.96;100.00;95678.13;4830162;29;20189;-84
2022/10/20 02:40:32;;;;;;;31.60;20.33;;;;;;;11.00;100.00;95676.03;4837499;29;20225;-82
2022/10/20 02:42:57;;;;;;;25.80;19.60;;;;;;;11.04;100.00;95677.34;4841654;29;20245;-85
2022/10/20 02:45:22;;;;;;;30.77;20.03;;;;;;;11.03;100.00;95675.72;4841120;29;20238;-83
2022/10/20 02:47:48;;;;;;;26.60;19.73;;;;;;;11.09;100.00;95663.94;4818708;29;20678;-84
2022/10/20 02:50:13;;;;;;;35.80;20.80;;;;;;;11.10;100.00;95660.38;4822804;29;20214;-84
2022/10/20 02:52:39;;;;;;;32.47;21.50;;;;;;;11.06;100.00;95658.06;4830069;29;20190;-83
2022/10/20 02:55:05;;;;;;;26.03;20.10;;;;;;;11.09;100.00;95667.34;4831446;29;20265;-85
2022/10/20 02:57:30;;;;;;;30.50;20.07;;;;;;;11.13;100.00;95668.69;4824460;29;20193;-83
2022/10/20 02:59:55;;;;;;;31.27;21.90;;;;;;;11.11;100.00;95657.63;4820390;29;20210;-83
2022/10/20 03:02:21;;;;;;;28.70;21.93;;;;;;;11.14;100.00;95662.53;4843946;29;20617;-83
2022/10/20 03:04:46;;;;;;;33.63;20.97;;;;;;;11.11;100.00;95664.59;4841780;29;20185;-83
2022/10/20 03:07:11;;;;;;;27.03;21.50;;;;;;;11.05;100.00;95661.63;4838583;29;20190;-83
2022/10/20 03:09:37;;;;;;;31.37;21.77;;;;;;;11.10;100.00;95668.16;4862564;29;20206;-83
2022/10/20 03:12:02;;;;;;;30.80;22.00;;;;;;;11.13;100.00;95662.66;4881459;29;20177;-81
2022/10/20 03:14:28;;;;;;;28.70;22.07;;;;;;;11.16;100.00;95662.38;4860684;29;20182;-82
2022/10/20 03:16:53;;;;;;;32.43;21.43;;;;;;;11.11;100.00;95660.22;4854690;29;20204;-82
2022/10/20 03:19:18;;;;;;;27.87;20.83;;;;;;;11.15;100.00;95664.16;4837341;29;20205;-83
2022/10/20 03:21:45;;;;;;;30.93;21.07;;;;;;;11.10;100.00;95663.78;4840037;29;20239;-83
2022/10/20 03:24:10;;;;;;;29.50;19.93;;;;;;;11.12;100.00;95655.81;4830964;29;20536;-84
2022/10/20 03:26:35;;;;;;;28.27;20.47;;;;;;;11.13;100.00;95654.84;4837930;29;20197;-82
2022/10/20 03:29:01;;;;;;;28.83;20.27;;;;;;;11.20;100.00;95654.13;4817765;29;20228;-85
2022/10/20 03:31:26;;;;;;;23.10;18.67;;;;;;;11.25;100.00;95646.72;4837901;29;20196;-83
2022/10/20 03:33:51;;;;;;;27.33;20.37;;;;;;;11.20;100.00;95643.72;4808526;29;20223;-84
2022/10/20 03:36:17;;;;;;;28.13;19.47;;;;;;;11.23;100.00;95647.84;4824609;29;20265;-84
2022/10/20 03:38:42;;;;;;;26.13;20.00;;;;;;;11.24;100.00;95649.47;4844834;29;20275;-84
2022/10/20 03:41:08;;;;;;;26.00;18.33;;;;;;;11.32;100.00;95654.72;4832200;29;20276;-84
2022/10/20 03:43:33;;;;;;;24.97;17.97;;;;;;;11.25;100.00;95643.28;4838073;29;20196;-82
2022/10/20 03:46:08;;;;;;;29.77;19.57;;;;;;;11.20;100.00;95640.31;4841816;29;20189;-84
2022/10/20 03:48:34;;;;;;;26.67;18.87;;;;;;;11.23;100.00;95635.66;4822913;29;20201;-83
2022/10/20 03:51:00;;;;;;;25.37;19.23;;;;;;;11.28;100.00;95637.78;4826277;29;20310;-84
2022/10/20 03:53:25;;;;;;;24.57;19.50;;;;;;;11.29;100.00;95635.03;4837747;29;20532;-84
2022/10/20 03:55:50;;;;;;;29.03;18.93;;;;;;;11.34;100.00;95632.00;4831159;29;20206;-85
2022/10/20 03:58:16;;;;;;;25.27;18.03;;;;;;;11.32;100.00;95628.75;4832076;29;20190;-83
2022/10/20 04:00:41;;;;;;;25.10;18.93;;;;;;;11.37;100.00;95634.28;4848964;29;20201;-84
2022/10/20 04:03:06;;;;;;;30.93;19.17;;;;;;;11.38;100.00;95625.50;4814092;29;20190;-84
2022/10/20 04:05:32;;;;;;;24.53;17.73;;;;;;;11.42;100.00;95616.47;4839708;29;20185;-85
2022/10/20 04:07:57;;;;;;;27.13;18.27;;;;;;;11.45;100.00;95623.13;4815490;29;21736;-84
2022/10/20 04:10:22;;;;;;;23.23;17.37;;;;;;;11.42;100.00;95626.88;4814186;29;20281;-82
2022/10/20 04:12:48;;;;;;;24.53;17.60;;;;;;;11.44;100.00;95622.31;4818198;29;20198;-83
2022/10/20 04:15:13;;;;;;;24.73;17.73;;;;;;;11.51;100.00;95615.56;4816425;29;20773;-82
2022/10/20 04:17:38;;;;;;;23.27;18.27;;;;;;;11.43;100.00;95622.47;4810698;29;20193;-82
2022/10/20 04:20:05;;;;;;;25.03;18.00;;;;;;;11.39;100.00;95615.94;4823727;29;20238;-82
2022/10/20 04:22:30;;;;;;;24.83;17.83;;;;;;;11.47;100.00;95629.81;4847622;29;20200;-82
2022/10/20 04:24:56;;;;;;;24.17;17.80;;;;;;;11.56;100.00;95623.69;4839299;29;20193;-84
2022/10/20 04:27:21;;;;;;;27.43;16.90;;;;;;;11.50;100.00;95619.13;4823797;29;20285;-85
2022/10/20 04:29:49;;;;;;;27.23;16.57;;;;;;;11.58;100.00;95614.00;4812595;29;20222;-86
2022/10/20 04:43:25;;;;;;;24.50;16.53;;;;;;;11.56;100.00;95607.28;4823064;29;20277;-87
2022/10/20 04:46:35;;;;;;;24.40;17.20;;;;;;;11.57;100.00;95601.94;4842167;29;20273;-84
2022/10/20 04:49:49;;;;;;;;;;;;;;;;;;;;;
2022/10/20 04:52:52;;;;;;;21.37;16.17;;;;;;;11.63;100.00;95598.72;4825405;29;20206;-86
2022/10/20 04:55:20;;;;;;;22.80;15.90;;;;;;;11.63;100.00;95592.72;4816394;29;20268;-87
2022/10/20 04:58:01;;;;;;;;;;;;;;;;;;;;;
2022/10/20 05:00:59;;;;;;;22.60;15.73;;;;;;;11.59;100.00;95587.00;4828226;29;20215;-87
2022/10/20 05:13:10;;;;;;;21.97;16.43;;;;;;;11.61;100.00;95582.47;4821630;29;20197;-86
2022/10/20 05:19:14;;;;;;;23.03;18.00;;;;;;;11.52;100.00;95570.38;4818846;29;20240;-82
2022/10/20 05:21:40;;;;;;;22.67;17.17;;;;;;;11.56;100.00;95571.69;4816754;29;20691;-82
2022/10/20 05:24:10;;;;;;;26.03;17.87;;;;;;;11.49;100.00;95567.28;4824098;29;20224;-82
2022/10/20 05:27:47;;;;;;;;;;;;;;;;;;;;;
2022/10/20 06:40:03;;;;;;;24.87;17.77;;;;;;;12.04;100.00;95572.97;5672417;23;20191;-80
2022/10/20 08:36:27;;;;;;;14.98;11.38;;;;;;;14.75;92.42;95617.94;5917509;23;20485;-88
2022/10/20 10:13:23;;;;;;;7.15;6.07;;;;;;;17.11;78.68;95665.53;5304531;23;20256;-84
2022/10/20 10:16:32;;;;;;;5.90;5.25;;;;;;;17.32;78.29;95663.97;4848358;29;20236;-89
2022/10/20 10:21:44;;;;;;;10.20;5.68;;;;;;;17.42;76.69;95662.66;4851418;23;20249;-86
2022/10/20 10:24:29;;;;;;;7.60;5.47;;;;;;;17.43;76.59;95666.91;4829163;29;20196;-87
2022/10/20 10:26:55;;;;;;;9.25;5.60;;;;;;;17.32;77.55;95653.47;4821257;29;20242;-83
2022/10/20 10:29:26;;;;;;;11.07;5.07;;;;;;;17.34;77.02;95648.84;4833219;29;20683;-83
2022/10/20 10:32:09;;;;;;;7.32;4.88;;;;;;;17.62;75.28;95651.50;4815615;29;20652;-83
2022/10/20 10:34:44;;;;;;;11.07;5.10;;;;;;;17.67;75.22;95651.75;4824762;29;20200;-83
2022/10/20 10:37:12;;;;;;;7.90;5.05;;;;;;;17.39;76.17;95641.19;4819049;29;20204;-82
2022/10/20 10:39:38;;;;;;;8.80;5.45;;;;;;;17.40;74.79;95643.63;4835776;29;20221;-83
2022/10/20 10:42:09;;;;;;;5.28;4.78;;;;;;;17.35;74.77;95640.75;4824039;29;20202;-82
2022/10/20 10:45:07;;;;;;;7.50;5.22;;;;;;;17.48;75.35;95640.06;4840654;29;20554;-84
2022/10/20 10:47:52;;;;;;;8.73;5.25;;;;;;;17.51;74.72;95653.66;4825984;29;20212;-83
2022/10/20 10:50:37;;;;;;;6.72;5.03;;;;;;;17.57;75.44;95646.81;4839710;29;20232;-83
2022/10/20 10:53:18;;;;;;;8.98;5.82;;;;;;;17.62;76.63;95641.81;4841101;29;20257;-84
2022/10/20 10:55:50;;;;;;;7.70;5.60;;;;;;;17.71;76.28;95651.22;4821052;29;20756;-84
2022/10/20 10:58:40;;;;;;;7.40;5.90;;;;;;;17.53;77.69;95645.56;4820312;29;20572;-84
2022/10/20 11:01:12;;;;;;;9.25;7.43;;;;;;;17.38;80.73;95656.13;4814567;29;20194;-82
2022/10/20 11:04:12;;;;;;;10.55;6.53;;;;;;;17.26;82.67;95626.94;4823202;29;20197;-82
2022/10/20 11:06:44;;;;;;;10.73;6.80;;;;;;;17.46;81.04;95636.81;4823954;29;20182;-84
2022/10/20 11:09:31;;;;;;;9.32;6.82;;;;;;;17.46;82.38;95624.50;4849295;29;20219;-83
2022/10/20 11:12:25;;;;;;;9.18;6.68;;;;;;;17.61;82.06;95634.13;4803075;29;20235;-85
2022/10/20 11:15:20;;;;;;;8.30;7.45;;;;;;;17.44;82.50;95625.69;4843215;29;20197;-84
2022/10/20 11:18:17;;;;;;;9.57;7.32;;;;;;;17.45;82.00;95616.81;4840889;29;20209;-84
2022/10/20 11:20:56;;;;;;;12.45;7.60;;;;;;;17.58;80.63;95626.63;4807665;29;20272;-85
2022/10/20 11:23:30;;;;;;;9.07;7.55;;;;;;;17.40;81.90;95617.38;4828986;29;20278;-84
2022/10/20 11:26:07;;;;;;;10.60;7.43;;;;;;;17.24;81.27;95600.09;4854752;29;20193;-85
2022/10/20 11:28:43;;;;;;;8.23;7.13;;;;;;;17.23;80.80;95589.78;4828061;29;20205;-86
2022/10/20 11:31:20;;;;;;;8.15;7.35;;;;;;;17.04;82.32;95585.13;4844460;29;21700;-83
2022/10/20 11:33:50;;;;;;;10.40;6.55;;;;;;;17.15;80.17;95589.91;4843019;29;20188;-84
2022/10/20 11:36:17;;;;;;;10.85;7.05;;;;;;;17.31;81.17;95589.63;4835312;29;20209;-83
2022/10/20 11:38:50;;;;;;;7.80;7.00;;;;;;;17.31;80.70;95592.25;4824610;29;20297;-82
2022/10/20 11:41:21;;;;;;;12.00;6.85;;;;;;;17.36;80.13;95596.94;4839072;29;20194;-82
2022/10/20 11:43:56;;;;;;;9.40;7.18;;;;;;;17.34;81.59;95586.66;4835769;29;20200;-83
2022/10/20 11:46:35;;;;;;;10.95;7.63;;;;;;;17.38;81.59;95585.25;4840838;29;20545;-84
2022/10/20 11:49:03;;;;;;;11.50;8.20;;;;;;;17.25;80.92;95593.84;4840193;29;20807;-83
2022/10/20 11:51:28;;;;;;;12.05;7.68;;;;;;;17.31;81.75;95587.00;4840545;29;20200;-84
2022/10/20 11:54:22;;;;;;;12.55;8.40;;;;;;;17.39;80.67;95591.31;4843636;29;20665;-85
2022/10/20 11:57:00;;;;;;;14.68;8.13;;;;;;;17.32;80.95;95585.22;4842665;29;20236;-83
2022/10/20 11:59:38;;;;;;;11.23;7.78;;;;;;;17.32;81.53;95583.41;4855984;29;20252;-85
2022/10/20 12:02:41;;;;;;;8.88;6.68;;;;;;;17.22;82.32;95594.19;4833352;29;20185;-85
2022/10/20 12:05:40;;;;;;;8.43;6.70;;;;;;;17.17;83.68;95578.22;4842484;29;20224;-83
2022/10/20 12:08:20;;;;;;;10.70;7.25;;;;;;;16.96;85.03;95592.13;4843998;29;20553;-85
2022/10/20 12:11:03;;;;;;;11.32;8.10;;;;;;;17.10;83.94;95587.81;4842947;29;20188;-84
2022/10/20 12:13:43;;;;;;;9.85;7.20;;;;;;;17.15;83.94;95576.78;4816605;29;20201;-84
2022/10/20 12:16:09;;;;;;;10.15;7.97;;;;;;;16.90;85.69;95571.88;4837471;29;20288;-84
2022/10/20 12:18:35;;;;;;;11.38;8.20;;;;;;;16.89;85.46;95566.84;4827381;29;20260;-85
2022/10/20 12:21:06;;;;;;;10.93;7.93;;;;;;;16.87;86.84;95568.81;4844864;29;20225;-84
2022/10/20 12:23:44;;;;;;;11.27;7.88;;;;;;;16.98;85.23;95558.66;4845258;29;20265;-85
2022/10/20 12:26:28;;;;;;;12.00;7.57;;;;;;;16.87;86.02;95560.94;4835035;29;20196;-86
2022/10/20 12:28:53;;;;;;;10.40;7.85;;;;;;;16.88;86.61;95559.97;4844067;29;20217;-83
2022/10/20 12:31:18;;;;;;;9.88;7.60;;;;;;;16.91;86.78;95559.59;4838537;29;20201;-84
2022/10/20 12:33:53;;;;;;;13.73;7.80;;;;;;;16.84;87.17;95567.38;4834712;29;20201;-84
2022/10/20 12:36:18;;;;;;;9.88;7.82;;;;;;;16.75;88.45;95572.91;4850423;29;20204;-85
2022/10/20 12:38:45;;;;;;;13.32;8.07;;;;;;;16.74;87.67;95573.94;4849256;29;20765;-81
2022/10/20 12:41:32;;;;;;;9.20;7.90;;;;;;;16.69;88.43;95582.31;4859801;29;20201;-82
2022/10/20 12:44:06;;;;;;;11.75;8.50;;;;;;;16.87;88.01;95584.53;4834498;29;20217;-83
2022/10/20 12:46:33;;;;;;;11.55;9.10;;;;;;;16.98;87.32;95576.22;4831674;29;20194;-83
2022/10/20 12:49:02;;;;;;;12.07;9.20;;;;;;;16.87;86.96;95560.94;4838810;29;20292;-84
2022/10/20 12:51:37;;;;;;;11.93;8.30;;;;;;;16.99;86.96;95549.78;4822357;29;20193;-85
2022/10/20 12:54:17;;;;;;;13.07;9.18;;;;;;;17.12;86.32;95545.66;4839767;29;20584;-85
2022/10/20 12:56:42;;;;;;;10.05;8.73;;;;;;;17.17;86.91;95544.09;4834523;29;20209;-83
2022/10/20 12:59:29;;;;;;;11.65;8.50;;;;;;;17.23;85.59;95538.09;4828694;29;20220;-83
2022/10/20 13:02:07;;;;;;;12.27;7.82;;;;;;;17.28;85.59;95543.59;4835687;29;20193;-85
2022/10/20 13:04:53;;;;;;;12.18;8.48;;;;;;;17.22;86.19;95535.66;4838245;29;20204;-83
2022/10/20 13:07:47;;;;;;;14.32;8.32;;;;;;;17.08;86.51;95529.47;4823484;29;20830;-84
2022/10/20 13:10:34;;;;;;;11.15;8.13;;;;;;;16.98;86.11;95526.38;4833593;29;20216;-82
2022/10/20 13:13:00;;;;;;;12.68;7.50;;;;;;;17.14;87.20;95527.91;4834743;29;20185;-83
2022/10/20 13:15:27;;;;;;;10.77;8.45;;;;;;;17.17;85.42;95532.78;4839106;29;20571;-85
2022/10/20 13:17:58;;;;;;;12.82;8.57;;;;;;;17.03;86.82;95531.03;4825291;29;20202;-82
2022/10/20 13:20:45;;;;;;;10.43;7.63;;;;;;;16.93;87.00;95536.59;4819470;29;20237;-83
2022/10/20 13:23:13;;;;;;;9.80;8.20;;;;;;;17.15;86.47;95543.47;4837855;29;20236;-84
2022/10/20 13:25:58;;;;;;;12.45;8.30;;;;;;;16.91;86.72;95534.16;4844537;29;20282;-84
2022/10/20 13:28:26;;;;;;;8.65;7.38;;;;;;;17.12;86.85;95548.28;4838674;29;20266;-82
2022/10/20 13:30:55;;;;;;;9.15;7.38;;;;;;;17.34;85.50;95543.84;4822660;29;20253;-83
2022/10/20 13:33:21;;;;;;;10.73;7.65;;;;;;;17.27;86.48;95554.28;4839636;29;20193;-84
2022/10/20 13:36:08;;;;;;;11.32;7.70;;;;;;;17.25;85.82;95548.41;4840237;29;20705;-84
2022/10/20 13:38:46;;;;;;;8.27;7.47;;;;;;;17.06;85.99;95546.41;4835502;29;20208;-85
2022/10/20 13:41:40;;;;;;;7.95;6.68;;;;;;;17.03;86.56;95544.97;4830892;29;20190;-83
2022/10/20 13:44:16;;;;;;;12.18;7.65;;;;;;;16.79;88.07;95545.34;4825546;29;20196;-84
2022/10/20 13:47:00;;;;;;;11.57;8.55;;;;;;;16.68;89.23;95546.59;4838173;29;20255;-84
2022/10/20 13:49:32;;;;;;;8.77;7.55;;;;;;;16.86;88.68;95546.19;4854178;29;20283;-86
2022/10/20 13:52:02;;;;;;;10.55;7.90;;;;;;;16.77;88.44;95549.94;4837970;29;20707;-86
2022/10/20 13:54:31;;;;;;;10.40;8.82;;;;;;;16.66;89.07;95556.47;4817626;29;20538;-85
2022/10/20 13:56:56;;;;;;;9.25;8.00;;;;;;;16.59;90.06;95550.31;4830836;29;20223;-85
2022/10/20 13:59:24;;;;;;;12.23;8.32;;;;;;;16.55;90.16;95549.88;4842772;29;20225;-86
2022/10/20 14:01:53;;;;;;;10.05;8.10;;;;;;;16.54;90.75;95555.31;4852330;29;20192;-85
2022/10/20 14:04:28;;;;;;;13.48;8.07;;;;;;;16.48;91.80;95553.44;4838631;29;20186;-83
2022/10/20 14:06:54;;;;;;;11.57;9.00;;;;;;;16.40;92.23;95552.53;4837550;29;20215;-81
2022/10/20 14:09:24;;;;;;;13.60;8.98;;;;;;;16.38;92.37;95551.91;4836373;29;20209;-84
2022/10/20 14:11:53;;;;;;;12.73;9.73;;;;;;;16.22;93.05;95554.72;4841189;29;20193;-83
2022/10/20 14:14:22;;;;;;;11.45;10.02;;;;;;;16.23;92.60;95560.78;4832790;29;20193;-85
2022/10/20 14:17:15;;;;;;;11.32;9.43;;;;;;;16.17;93.88;95551.84;4842811;29;20578;-84
2022/10/20 14:19:40;;;;;;;13.55;9.60;;;;;;;16.07;93.98;95552.09;4845862;29;20929;-83
2022/10/20 14:22:18;;;;;;;14.70;9.80;;;;;;;16.07;94.66;95533.75;4834207;29;20212;-85
2022/10/20 14:24:48;;;;;;;12.43;9.80;;;;;;;15.95;94.59;95526.56;4840966;29;20220;-85
2022/10/20 14:27:22;;;;;;;14.35;10.48;;;;;;;15.99;95.19;95522.56;4828145;29;20261;-85
2022/10/20 14:29:48;;;;;;;15.20;9.18;;;;;;;16.01;96.02;95518.78;4825282;29;20699;-85
2022/10/20 14:32:18;;;;;;;11.73;10.20;;;;;;;16.03;96.41;95511.56;4833478;29;20299;-84
2022/10/20 14:35:00;;;;;;;14.07;9.80;;;;;;;16.05;96.06;95495.66;4836369;29;20216;-84
2022/10/20 14:37:35;;;;;;;12.18;9.95;;;;;;;15.95;96.45;95485.47;4823001;29;20289;-83
2022/10/20 14:40:04;;;;;;;16.38;11.13;;;;;;;15.86;96.87;95489.19;4828023;29;20209;-85
2022/10/20 14:42:30;;;;;;;15.98;10.80;;;;;;;15.91;96.95;95489.47;4841805;29;20273;-84
2022/10/20 14:44:56;;;;;;;24.35;13.80;;;;;;;15.94;96.73;95504.78;4840265;29;20662;-85
2022/10/20 14:47:22;;;;;;;14.95;11.35;;;;;;;15.95;97.33;95503.78;4840764;29;20681;-85
2022/10/20 14:49:50;;;;;;;13.63;10.30;;;;;;;16.00;97.56;95505.88;4827473;29;20205;-84
2022/10/20 14:52:16;;;;;;;14.65;10.70;;;;;;;16.00;97.76;95504.09;4841734;29;20285;-85
2022/10/20 14:54:42;;;;;;;16.45;11.38;;;;;;;16.10;97.13;95506.41;4846363;29;20228;-85
2022/10/20 14:57:07;;;;;;;12.02;10.35;;;;;;;16.14;96.90;95511.09;4843111;29;20212;-84
2022/10/20 14:59:50;;;;;;;15.20;10.65;;;;;;;16.15;96.60;95512.72;4840735;29;20209;-85
2022/10/20 15:02:19;;;;;;;12.13;9.38;;;;;;;16.14;96.48;95500.63;4840427;29;20181;-86
2022/10/20 15:04:46;;;;;;;10.95;9.40;;;;;;;16.14;96.08;95502.41;4851914;29;20189;-84
2022/10/20 15:07:15;;;;;;;12.50;9.73;;;;;;;16.01;96.24;95516.19;4843875;29;20207;-83
2022/10/20 15:09:41;;;;;;;12.43;9.50;;;;;;;15.93;97.09;95511.03;4829016;29;20216;-84
2022/10/20 15:12:14;;;;;;;14.25;9.43;;;;;;;16.02;97.22;95509.94;4847097;29;20197;-80
2022/10/20 15:14:41;;;;;;;11.35;10.10;;;;;;;15.94;97.22;95515.28;4838786;29;21214;-84
2022/10/20 15:17:33;;;;;;;15.60;10.48;;;;;;;15.83;98.02;95503.44;4824340;29;20240;-85
2022/10/20 15:19:58;;;;;;;13.05;10.00;;;;;;;15.78;98.77;95504.97;4841317;29;20229;-84
2022/10/20 15:22:23;;;;;;;17.70;12.80;;;;;;;15.75;98.64;95515.81;4840386;29;20263;-84
2022/10/20 15:24:49;;;;;;;16.10;12.82;;;;;;;15.68;99.09;95507.06;4824023;29;20228;-84
2022/10/20 15:27:16;;;;;;;20.85;14.55;;;;;;;15.64;99.67;95509.22;4841522;29;20209;-84
2022/10/20 15:29:49;;;;;;;15.82;11.27;;;;;;;15.74;99.62;95508.97;4830837;29;20213;-84
2022/10/20 15:32:15;;;;;;;15.05;11.32;;;;;;;15.66;99.87;95522.13;4837147;29;20629;-85
2022/10/20 15:34:40;;;;;;;15.05;10.90;;;;;;;15.62;100.00;95529.50;4831365;29;20227;-85
2022/10/20 15:37:05;;;;;;;19.60;10.35;;;;;;;15.62;100.00;95526.09;4833689;29;20221;-84
2022/10/20 15:39:31;;;;;;;11.57;9.73;;;;;;;15.41;100.00;95519.72;4854540;29;20235;-84
2022/10/20 15:41:56;;;;;;;15.82;10.27;;;;;;;15.44;100.00;95510.69;4838689;29;20201;-85
2022/10/20 15:44:21;;;;;;;13.43;10.32;;;;;;;15.44;100.00;95503.66;4850998;29;20627;-85
2022/10/20 15:46:48;;;;;;;13.50;11.25;;;;;;;15.46;100.00;95512.16;4844218;29;20567;-86
2022/10/20 15:49:14;;;;;;;17.23;9.80;;;;;;;15.41;100.00;95504.03;4840233;29;20220;-83
2022/10/20 15:51:44;;;;;;;13.00;10.32;;;;;;;15.38;100.00;95509.63;4842954;29;20209;-84
2022/10/20 15:54:12;;;;;;;13.07;10.38;;;;;;;15.25;100.00;95497.13;4852070;29;20276;-84
2022/10/20 15:56:37;;;;;;;15.55;10.52;;;;;;;15.34;100.00;95476.94;4832910;29;20213;-85
2022/10/20 15:59:02;;;;;;;19.13;13.43;;;;;;;15.28;100.00;95483.72;4863557;29;20233;-84
2022/10/20 16:01:28;;;;;;;19.73;14.70;;;;;;;15.26;100.00;95477.81;4848693;29;20193;-85
2022/10/20 16:34:06;;;;;;;16.85;12.00;;;;;;;15.22;100.00;95483.59;5772016;23;20497;-85
2022/10/20 16:36:32;;;;;;;19.10;12.85;;;;;;;15.25;100.00;95484.03;4834699;29;20213;-86
2022/10/20 16:39:00;;;;;;;16.75;11.57;;;;;;;15.23;100.00;95480.81;4835041;29;20226;-87
2022/10/20 16:41:25;;;;;;;16.10;10.75;;;;;;;15.22;100.00;95473.13;4822047;29;20241;-84
2022/10/20 16:43:51;;;;;;;15.18;10.32;;;;;;;15.21;100.00;95471.50;4832193;29;20604;-82
2022/10/20 16:46:16;;;;;;;15.90;10.15;;;;;;;15.19;100.00;95470.84;4830032;29;20186;-84
2022/10/20 16:48:42;;;;;;;14.23;10.27;;;;;;;15.10;100.00;95474.53;4807587;29;20309;-84
2022/10/20 16:51:09;;;;;;;10.50;9.07;;;;;;;15.12;100.00;95464.72;4830792;29;20837;-84
2022/10/20 16:53:34;;;;;;;13.60;8.98;;;;;;;15.13;100.00;95466.34;4827994;29;20221;-83
2022/10/20 16:56:00;;;;;;;16.88;10.75;;;;;;;15.08;100.00;95463.44;4831128;29;20202;-83
2022/10/20 16:58:25;;;;;;;13.50;10.52;;;;;;;15.05;100.00;95461.19;4823150;29;20268;-83
2022/10/20 17:00:56;;;;;;;11.88;10.20;;;;;;;15.05;100.00;95461.19;4837668;29;20197;-84
2022/10/20 17:03:21;;;;;;;12.88;10.52;;;;;;;15.02;100.00;95465.81;4833990;29;20250;-84
2022/10/20 17:05:53;;;;;;;13.82;9.60;;;;;;;15.02;100.00;95457.94;4832029;29;20198;-82
2022/10/20 17:08:18;;;;;;;13.77;10.55;;;;;;;15.02;100.00;95463.19;4837894;29;20210;-83
2022/10/20 17:10:43;;;;;;;13.75;9.80;;;;;;;15.07;100.00;95465.25;4841955;29;20244;-84
2022/10/20 17:13:09;;;;;;;13.40;8.95;;;;;;;15.02;100.00;95468.41;4841445;29;20205;-83
2022/10/20 17:15:34;;;;;;;13.13;9.55;;;;;;;14.97;100.00;95475.16;4825909;29;20222;-84
2022/10/20 17:17:59;;;;;;;10.85;8.73;;;;;;;14.93;100.00;95473.84;4845223;29;20613;-84
2022/10/20 17:20:25;;;;;;;14.75;11.48;;;;;;;14.87;100.00;95485.84;4810942;29;20226;-83